Time;durP1;ratioP1;P1;durP2;ratioP2;P2;SDS_P1;SDS_P2;PMS_P1;PMS_P2;Temp;Humidity;BMP_temperature;BMP_pressure;BME280_temperature;BME280_humidity;BME280_pressure;Samples;Min_cycle;Max_cycle;Signal;HPM_P1;HPM_P2
2022/10/21 00:00:21;;;;;;;13.77;7.13;;;11.00;99.90;;;;;;4937960;29;20134;-77
2022/10/21 00:02:46;;;;;;;14.68;7.55;;;10.80;99.90;;;;;;4922191;29;20126;-77
2022/10/21 00:07:41;;;;;;;13.55;7.13;;;11.00;99.90;;;;;;4980951;23;20294;-79
2022/10/21 00:10:08;;;;;;;13.80;8.13;;;11.00;99.90;;;;;;4940084;23;20142;-78
2022/10/21 00:12:34;;;;;;;11.07;6.57;;;11.00;99.90;;;;;;4918562;29;20051;-78
2022/10/21 00:15:10;;;;;;;13.15;7.03;;;11.00;99.90;;;;;;4934398;29;20075;-77
2022/10/21 00:17:38;;;;;;;16.02;7.55;;;11.00;99.90;;;;;;4918828;29;20048;-77
2022/10/21 00:20:05;;;;;;;12.35;7.57;;;11.00;99.90;;;;;;4934529;29;20530;-77
2022/10/21 00:22:32;;;;;;;14.20;7.78;;;11.10;99.90;;;;;;4935231;29;20043;-77
2022/10/21 00:24:58;;;;;;;11.48;7.13;;;11.10;99.90;;;;;;4971837;23;20142;-72
2022/10/21 00:27:24;;;;;;;14.25;7.80;;;11.10;99.90;;;;;;4905478;29;20048;-72
2022/10/21 00:29:50;;;;;;;10.35;6.43;;;11.10;99.90;;;;;;4922105;29;20372;-73
2022/10/21 00:32:16;;;;;;;9.93;7.18;;;11.00;99.90;;;;;;4906407;29;20040;-73
2022/10/21 00:34:42;;;;;;;13.88;7.68;;;11.00;99.90;;;;;;4921823;29;20043;-72
2022/10/21 00:37:12;;;;;;;9.57;6.75;;;11.00;99.90;;;;;;4906079;29;20391;-73
2022/10/21 00:39:38;;;;;;;12.38;6.93;;;11.00;99.90;;;;;;4921663;29;20059;-72
2022/10/21 00:42:16;;;;;;;10.05;6.63;;;11.00;99.90;;;;;;4905876;29;20043;-73
2022/10/21 00:44:43;;;;;;;13.55;6.60;;;11.00;99.90;;;;;;4905769;29;20047;-72
2022/10/21 00:47:16;;;;;;;11.50;7.15;;;11.00;99.90;;;;;;4905850;29;20032;-73
2022/10/21 00:49:48;;;;;;;14.98;7.25;;;11.00;99.90;;;;;;4921491;29;20086;-72
2022/10/21 00:52:18;;;;;;;9.55;6.50;;;11.00;99.90;;;;;;4921649;29;20044;-73
2022/10/21 00:58:33;;;;;;;10.52;6.30;;;10.90;99.90;;;;;;4967859;23;20063;-69
2022/10/21 01:01:01;;;;;;;13.52;6.53;;;11.00;99.90;;;;;;4957639;29;20047;-69
2022/10/21 01:03:28;;;;;;;13.75;7.22;;;11.00;99.90;;;;;;4940264;29;20114;-69
2022/10/21 01:05:57;;;;;;;13.45;7.20;;;11.00;99.90;;;;;;4957704;29;20475;-69
2022/10/21 01:08:24;;;;;;;13.48;6.90;;;11.00;99.90;;;;;;4957604;29;20482;-69
2022/10/21 01:10:50;;;;;;;16.38;6.85;;;11.00;99.90;;;;;;4957630;29;20043;-67
2022/10/21 01:16:15;;;;;;;14.18;7.00;;;11.00;99.90;;;;;;5008401;23;20510;-70
2022/10/21 01:18:58;;;;;;;12.20;6.72;;;10.90;99.90;;;;;;4940003;29;20043;-69
2022/10/21 01:21:49;;;;;;;12.73;7.50;;;10.90;99.90;;;;;;4957143;29;20047;-69
2022/10/21 01:24:36;;;;;;;12.20;6.68;;;10.90;99.90;;;;;;4957429;29;20047;-69
2022/10/21 01:27:20;;;;;;;13.43;7.28;;;10.80;99.90;;;;;;4957322;29;20130;-69
2022/10/21 01:30:10;;;;;;;11.60;6.25;;;10.90;99.90;;;;;;4957298;29;20047;-69
2022/10/21 01:32:58;;;;;;;9.43;5.90;;;10.80;99.90;;;;;;4957017;29;20043;-69
2022/10/21 01:35:44;;;;;;;12.05;6.03;;;10.70;99.90;;;;;;4956035;28;20102;-69
2022/10/21 01:38:18;;;;;;;12.82;6.90;;;10.80;99.90;;;;;;4957163;29;20465;-69
2022/10/21 01:41:18;;;;;;;13.52;7.20;;;10.70;99.90;;;;;;4956776;29;20118;-69
2022/10/21 01:49:19;;;;;;;13.07;6.43;;;10.70;99.90;;;;;;4935580;29;20506;-69
2022/10/21 01:51:46;;;;;;;10.75;6.43;;;10.70;99.90;;;;;;4937704;29;20043;-70
2022/10/21 01:54:18;;;;;;;12.63;7.20;;;10.70;99.90;;;;;;4937667;29;20048;-69
2022/10/21 01:56:47;;;;;;;10.73;6.25;;;10.70;99.90;;;;;;4937598;29;20115;-69
2022/10/21 01:59:14;;;;;;;14.40;7.18;;;10.70;99.90;;;;;;4920238;29;20109;-69
2022/10/21 02:01:42;;;;;;;11.48;6.70;;;10.70;99.90;;;;;;4937213;29;20048;-69
2022/10/21 02:04:17;;;;;;;13.77;7.55;;;10.70;99.90;;;;;;5097325;23;20023;-75
2022/10/21 02:06:44;;;;;;;14.00;6.85;;;10.70;99.90;;;;;;4927564;23;20059;-74
2022/10/21 02:09:10;;;;;;;9.15;5.47;;;10.70;99.90;;;;;;4920291;29;20081;-75
2022/10/21 02:11:37;;;;;;;11.73;5.57;;;10.80;99.90;;;;;;4935856;29;20065;-75
2022/10/21 02:14:13;;;;;;;12.02;7.05;;;10.90;99.90;;;;;;4920047;29;20050;-74
2022/10/21 02:16:39;;;;;;;11.18;7.18;;;10.90;99.90;;;;;;4919933;29;20178;-74
2022/10/21 02:22:52;;;;;;;18.63;6.78;;;11.00;99.90;;;;;;4949133;23;20418;-62
2022/10/21 02:25:24;;;;;;;10.27;6.30;;;11.10;99.90;;;;;;4937084;29;20455;-62
2022/10/21 02:27:51;;;;;;;11.15;6.70;;;11.20;99.90;;;;;;4937007;29;20047;-62
2022/10/21 02:30:18;;;;;;;10.13;6.35;;;11.20;99.90;;;;;;4919687;29;20043;-62
2022/10/21 02:32:59;;;;;;;11.88;6.65;;;11.20;99.90;;;;;;4936743;29;20075;-63
2022/10/21 02:35:38;;;;;;;15.23;6.18;;;11.30;99.90;;;;;;4919815;29;20048;-62
2022/10/21 02:40:36;;;;;;;9.48;6.18;;;11.40;99.90;;;;;;4861718;29;20063;-74
2022/10/21 02:43:14;;;;;;;;;;;11.40;99.90;;;;;;4848288;29;20037;-74
2022/10/21 02:45:40;;;;;;;11.50;5.85;;;11.50;99.90;;;;;;4863246;29;19919;-74
2022/10/21 02:48:06;;;;;;;14.05;6.65;;;11.50;99.90;;;;;;4847912;29;20047;-74
2022/10/21 02:50:31;;;;;;;16.50;8.23;;;11.70;99.90;;;;;;4847846;29;20123;-74
2022/10/21 02:52:57;;;;;;;22.40;7.53;;;11.70;99.90;;;;;;4863143;29;20113;-75
2022/10/21 02:55:23;;;;;;;11.55;6.68;;;11.80;99.90;;;;;;4863219;29;20096;-75
2022/10/21 02:57:49;;;;;;;9.95;6.22;;;11.90;99.90;;;;;;4863337;29;20189;-75
2022/10/21 03:00:15;;;;;;;12.38;6.07;;;12.00;99.90;;;;;;4847721;29;20053;-75
2022/10/21 03:02:41;;;;;;;14.18;7.03;;;12.00;99.90;;;;;;4863081;29;20044;-75
2022/10/21 03:05:08;;;;;;;9.68;5.90;;;12.00;99.90;;;;;;4832602;29;20059;-75
2022/10/21 03:07:34;;;;;;;10.10;5.55;;;12.00;99.90;;;;;;4847565;29;20049;-75
2022/10/21 03:10:00;;;;;;;12.38;6.28;;;12.10;99.90;;;;;;4889929;23;20043;-68
2022/10/21 03:12:26;;;;;;;10.73;6.32;;;12.10;99.90;;;;;;4935707;29;20471;-68
2022/10/21 03:14:51;;;;;;;9.77;5.80;;;12.10;99.90;;;;;;4918310;29;20468;-68
2022/10/21 03:17:17;;;;;;;12.88;6.38;;;12.10;99.90;;;;;;4935079;29;20398;-69
2022/10/21 03:19:43;;;;;;;12.05;6.22;;;12.10;99.90;;;;;;4935169;29;20095;-69
2022/10/21 03:22:08;;;;;;;11.15;6.50;;;12.10;99.90;;;;;;4918933;29;20048;-68
2022/10/21 03:24:34;;;;;;;13.25;5.75;;;12.10;99.90;;;;;;4936272;29;20566;-68
2022/10/21 03:27:03;;;;;;;9.30;5.20;;;12.40;99.90;;;;;;5002176;23;20504;-74
2022/10/21 03:29:29;;;;;;;8.20;5.50;;;12.10;99.90;;;;;;4925095;23;20083;-74
2022/10/21 03:31:55;;;;;;;10.15;5.28;;;12.10;99.90;;;;;;4919238;29;20063;-74
2022/10/21 03:34:21;;;;;;;10.77;6.03;;;12.10;99.90;;;;;;4934762;29;20040;-74
2022/10/21 03:36:46;;;;;;;11.40;5.95;;;12.10;99.90;;;;;;4934718;29;20044;-74
2022/10/21 03:39:12;;;;;;;8.38;5.30;;;12.10;99.90;;;;;;4918883;29;20126;-74
2022/10/21 03:41:39;;;;;;;11.77;5.72;;;12.10;99.90;;;;;;4934590;29;20044;-74
2022/10/21 03:46:41;;;;;;;12.18;6.82;;;12.10;99.90;;;;;;1767678;23;20336;-79
2022/10/21 03:49:08;;;;;;;9.80;6.03;;;12.10;99.90;;;;;;4924070;23;20431;-75
2022/10/21 03:51:34;;;;;;;12.07;5.72;;;12.10;99.90;;;;;;4918678;29;20043;-75
2022/10/21 03:54:00;;;;;;;9.43;5.95;;;12.10;99.90;;;;;;4903074;29;20039;-75
2022/10/21 03:56:25;;;;;;;11.93;5.88;;;12.10;99.90;;;;;;4918936;29;20432;-75
2022/10/21 03:58:51;;;;;;;14.82;6.57;;;12.10;99.90;;;;;;4937453;29;20044;-75
2022/10/21 04:04:53;;;;;;;10.68;6.32;;;12.10;99.90;;;;;;4969761;23;20423;-65
2022/10/21 04:07:19;;;;;;;15.18;5.65;;;12.00;99.90;;;;;;4921640;29;20107;-65
2022/10/21 04:09:45;;;;;;;12.93;6.65;;;12.00;99.90;;;;;;4938679;29;20035;-65
2022/10/21 04:12:10;;;;;;;10.63;6.22;;;12.00;99.90;;;;;;4939671;29;20043;-65
2022/10/21 04:14:36;;;;;;;10.75;6.05;;;12.00;99.90;;;;;;4939485;29;20051;-65
2022/10/21 04:17:02;;;;;;;10.80;6.78;;;12.00;99.90;;;;;;4939391;29;20143;-65
2022/10/21 04:22:13;;;;;;;11.82;6.13;;;12.00;99.90;;;;;;4931526;23;20529;-72
2022/10/21 04:24:39;;;;;;;12.98;6.22;;;12.00;99.90;;;;;;4941259;29;20051;-72
2022/10/21 04:27:05;;;;;;;13.80;7.18;;;12.00;99.90;;;;;;4909425;29;20078;-73
2022/10/21 04:29:30;;;;;;;9.77;6.22;;;12.00;99.90;;;;;;4940945;29;20490;-73
2022/10/21 04:31:56;;;;;;;10.90;6.00;;;12.00;99.90;;;;;;4925052;29;20051;-72
2022/10/21 04:34:22;;;;;;;13.60;6.78;;;12.00;99.90;;;;;;4925038;29;20074;-72
2022/10/21 04:39:23;;;;;;;17.23;7.07;;;11.90;99.90;;;;;;3288136;26;20087;-62
2022/10/21 04:41:51;;;;;;;13.35;6.68;;;11.90;99.90;;;;;;4938888;29;20100;-62
2022/10/21 04:44:17;;;;;;;11.82;6.70;;;11.80;99.90;;;;;;4938687;29;20039;-62
2022/10/21 04:46:42;;;;;;;10.77;6.45;;;11.80;99.90;;;;;;4938899;29;20046;-62
2022/10/21 04:49:08;;;;;;;15.02;7.03;;;11.80;99.90;;;;;;4938877;29;20039;-62
2022/10/21 04:51:34;;;;;;;16.58;5.95;;;11.80;99.90;;;;;;4938851;29;20099;-62
2022/10/21 04:57:02;;;;;;;10.43;6.03;;;11.80;99.90;;;;;;4936295;26;20097;-77
2022/10/21 04:59:27;;;;;;;10.52;6.40;;;11.80;99.90;;;;;;4921356;29;20134;-78
2022/10/21 05:01:53;;;;;;;11.50;6.95;;;11.80;99.90;;;;;;4905574;29;20464;-77
2022/10/21 05:04:19;;;;;;;12.48;6.63;;;11.70;99.90;;;;;;4874538;29;20558;-77
2022/10/21 05:06:44;;;;;;;11.52;6.35;;;11.70;99.90;;;;;;4921540;29;20446;-77
2022/10/21 05:09:10;;;;;;;13.52;5.55;;;11.70;99.90;;;;;;4904185;29;20051;-77
2022/10/21 05:11:36;;;;;;;11.68;7.03;;;11.80;99.90;;;;;;4890194;29;20396;-78
2022/10/21 05:14:01;;;;;;;11.63;6.45;;;11.60;99.90;;;;;;4921172;29;20048;-78
2022/10/21 05:16:27;;;;;;;12.43;6.38;;;11.60;99.90;;;;;;4905372;29;20413;-77
2022/10/21 05:18:53;;;;;;;8.38;5.72;;;11.50;99.90;;;;;;4889679;29;20410;-77
2022/10/21 05:21:19;;;;;;;10.35;6.20;;;11.50;99.90;;;;;;4905250;29;20487;-77
2022/10/21 05:23:44;;;;;;;9.65;5.57;;;11.50;99.90;;;;;;4936797;29;20495;-77
2022/10/21 05:29:12;;;;;;;10.13;5.95;;;11.40;99.90;;;;;;3301594;26;20502;-62
2022/10/21 05:31:38;;;;;;;11.82;6.13;;;11.40;99.90;;;;;;4938110;29;20047;-62
2022/10/21 05:34:03;;;;;;;13.13;5.85;;;11.30;99.90;;;;;;4938002;29;20039;-62
2022/10/21 05:36:29;;;;;;;10.00;6.30;;;11.30;99.90;;;;;;4938022;29;20055;-62
2022/10/21 05:38:55;;;;;;;12.35;6.28;;;11.30;99.90;;;;;;4937967;29;20039;-62
2022/10/21 05:41:20;;;;;;;11.60;6.30;;;11.30;99.90;;;;;;4937825;29;20103;-63
2022/10/21 05:46:31;;;;;;;11.38;6.07;;;11.30;99.90;;;;;;4944277;23;20055;-73
2022/10/21 05:48:57;;;;;;;11.63;5.97;;;11.30;99.90;;;;;;4908001;29;20051;-73
2022/10/21 05:51:25;;;;;;;11.93;6.50;;;11.30;99.90;;;;;;4908135;29;20138;-72
2022/10/21 05:53:52;;;;;;;9.20;5.57;;;11.30;99.90;;;;;;4924096;29;20057;-74
2022/10/21 05:56:18;;;;;;;10.23;6.53;;;11.30;99.90;;;;;;4923625;29;20130;-73
2022/10/21 05:58:43;;;;;;;9.50;5.63;;;11.30;99.90;;;;;;4923760;29;20086;-72
2022/10/21 06:01:09;;;;;;;10.85;6.10;;;11.30;99.90;;;;;;4946818;23;20063;-68
2022/10/21 06:03:35;;;;;;;12.32;6.50;;;11.20;99.90;;;;;;4937126;29;20115;-69
2022/10/21 06:06:04;;;;;;;12.20;6.95;;;11.20;99.90;;;;;;4920097;29;20380;-69
2022/10/21 06:08:32;;;;;;;10.23;5.85;;;11.20;99.90;;;;;;4937219;29;20043;-69
2022/10/21 06:11:10;;;;;;;9.35;5.60;;;11.20;99.90;;;;;;4937355;29;20048;-69
2022/10/21 06:13:36;;;;;;;10.18;5.80;;;11.10;99.90;;;;;;4937088;29;20098;-69
2022/10/21 06:19:49;;;;;;;15.05;6.85;;;11.10;99.90;;;;;;4996172;23;20150;-74
2022/10/21 06:22:14;;;;;;;11.63;6.43;;;11.00;99.90;;;;;;4938654;29;20413;-75
2022/10/21 06:24:40;;;;;;;10.68;5.53;;;11.00;99.90;;;;;;4923130;29;20039;-75
2022/10/21 06:27:07;;;;;;;11.30;5.97;;;11.00;99.90;;;;;;4939027;29;20498;-75
2022/10/21 06:29:33;;;;;;;13.23;5.85;;;10.90;99.90;;;;;;4923009;29;20050;-75
2022/10/21 06:31:58;;;;;;;11.02;6.05;;;10.90;99.90;;;;;;4938919;29;20478;-75
2022/10/21 06:34:24;;;;;;;11.98;6.00;;;10.90;99.90;;;;;;4938706;29;20039;-74
2022/10/21 06:36:50;;;;;;;12.13;6.03;;;10.90;99.90;;;;;;4922858;29;20039;-75
2022/10/21 06:39:15;;;;;;;13.40;6.05;;;10.90;99.90;;;;;;4938870;29;20047;-74
2022/10/21 06:41:41;;;;;;;11.45;6.03;;;10.90;99.90;;;;;;4922734;29;20106;-75
2022/10/21 06:44:07;;;;;;;11.27;6.07;;;10.90;99.90;;;;;;4922726;29;20047;-74
2022/10/21 06:46:32;;;;;;;11.48;6.55;;;10.80;99.90;;;;;;4938455;29;20486;-75
2022/10/21 06:52:11;;;;;;;9.88;6.22;;;10.80;99.90;;;;;;4914933;29;20067;-69
2022/10/21 06:54:36;;;;;;;11.10;5.85;;;10.90;99.90;;;;;;4916336;29;20056;-69
2022/10/21 06:57:02;;;;;;;10.02;5.55;;;10.90;99.90;;;;;;4916384;29;20040;-69
2022/10/21 06:59:29;;;;;;;11.35;6.65;;;10.90;99.90;;;;;;4900035;29;20039;-69
2022/10/21 07:01:54;;;;;;;14.93;5.68;;;11.00;99.90;;;;;;4917363;29;20194;-68
2022/10/21 07:04:20;;;;;;;11.93;6.55;;;11.00;99.90;;;;;;4917402;29;20048;-69
2022/10/21 07:06:47;;;;;;;9.35;5.60;;;11.00;99.90;;;;;;4952953;23;20018;-79
2022/10/21 07:09:14;;;;;;;12.48;6.15;;;11.00;99.90;;;;;;4910092;23;20051;-75
2022/10/21 07:11:39;;;;;;;13.60;6.13;;;11.00;99.90;;;;;;4935003;29;20048;-75
2022/10/21 07:14:06;;;;;;;20.10;5.97;;;11.10;99.90;;;;;;4903226;29;20130;-75
2022/10/21 07:16:37;;;;;;;9.98;5.45;;;11.20;99.90;;;;;;4918914;29;20046;-75
2022/10/21 07:19:03;;;;;;;;;;;11.20;99.90;;;;;;4935359;29;20122;-75
2022/10/21 07:21:30;;;;;;;8.25;5.20;;;11.50;99.90;;;;;;4918832;29;19974;-75
2022/10/21 07:23:58;;;;;;;10.60;5.53;;;11.30;99.90;;;;;;4919322;29;20076;-75
2022/10/21 07:26:24;;;;;;;17.00;7.55;;;11.30;99.90;;;;;;4934629;29;20042;-75
2022/10/21 07:28:51;;;;;;;9.52;5.75;;;11.40;99.90;;;;;;4918787;29;20130;-75
2022/10/21 07:31:19;;;;;;;10.82;5.93;;;11.50;99.90;;;;;;4934544;29;20055;-75
2022/10/21 07:33:45;;;;;;;10.90;5.78;;;11.60;99.90;;;;;;4937920;29;20106;-75
2022/10/21 07:36:20;;;;;;;9.35;5.47;;;11.60;99.90;;;;;;4922981;29;20514;-75
2022/10/21 07:38:47;;;;;;;11.10;6.25;;;11.70;99.90;;;;;;4935040;23;20048;-69
2022/10/21 07:41:19;;;;;;;10.82;5.85;;;11.70;99.90;;;;;;4922044;29;20155;-69
2022/10/21 07:43:45;;;;;;;10.50;6.53;;;11.70;99.90;;;;;;4939963;29;20491;-69
2022/10/21 07:46:11;;;;;;;12.57;6.15;;;11.80;99.90;;;;;;4922614;29;20036;-69
2022/10/21 07:48:37;;;;;;;16.00;6.38;;;11.80;99.90;;;;;;4939906;29;20039;-69
2022/10/21 07:51:05;;;;;;;10.30;5.95;;;12.40;99.90;;;;;;4922543;29;20545;-69
2022/10/21 07:53:31;;;;;;;9.45;5.30;;;11.90;99.90;;;;;;4939759;29;20048;-69
2022/10/21 07:56:21;;;;;;;9.95;5.40;;;11.90;99.90;;;;;;4972522;23;20052;-74
2022/10/21 07:58:47;;;;;;;15.32;6.60;;;11.90;99.90;;;;;;4901667;29;20071;-75
2022/10/21 08:01:14;;;;;;;11.60;6.40;;;12.00;99.90;;;;;;4887534;29;20036;-75
2022/10/21 08:03:40;;;;;;;11.07;6.15;;;12.10;99.90;;;;;;4903632;29;20048;-75
2022/10/21 08:06:08;;;;;;;14.40;6.18;;;12.20;99.90;;;;;;4903354;29;20091;-75
2022/10/21 08:08:34;;;;;;;10.35;5.90;;;12.30;99.90;;;;;;4903358;29;20040;-75
2022/10/21 08:14:30;;;;;;;13.18;5.97;;;12.50;99.90;;;;;;4937544;29;20051;-65
2022/10/21 08:16:56;;;;;;;12.23;6.30;;;12.60;99.90;;;;;;4939376;29;20047;-64
2022/10/21 08:19:28;;;;;;;9.70;5.82;;;12.70;99.90;;;;;;4906612;29;20043;-64
2022/10/21 08:21:54;;;;;;;9.00;5.63;;;12.80;99.90;;;;;;4939219;29;20075;-65
2022/10/21 08:24:20;;;;;;;9.45;5.88;;;12.80;99.90;;;;;;4939039;29;20501;-65
2022/10/21 08:26:45;;;;;;;16.67;5.88;;;12.90;99.90;;;;;;4922190;29;20031;-65
2022/10/21 08:29:11;;;;;;;12.98;6.80;;;12.90;99.90;;;;;;4958411;23;20023;-73
2022/10/21 08:31:38;;;;;;;10.02;6.40;;;13.00;99.90;;;;;;4927993;23;20056;-72
2022/10/21 08:34:03;;;;;;;10.52;5.32;;;13.10;99.90;;;;;;4937958;29;20479;-73
2022/10/21 08:36:29;;;;;;;16.30;5.90;;;13.20;99.90;;;;;;4921834;29;20042;-73
2022/10/21 08:38:57;;;;;;;9.40;5.72;;;13.20;99.90;;;;;;4937587;29;20403;-73
2022/10/21 08:41:29;;;;;;;7.63;5.18;;;13.30;99.90;;;;;;4906413;29;20459;-73
2022/10/21 08:43:58;;;;;;;15.00;6.63;;;13.30;99.90;;;;;;4937300;29;20071;-73
2022/10/21 08:49:11;;;;;;;13.95;5.30;;;13.50;99.90;;;;;;4255755;27;20500;-62
2022/10/21 08:51:48;;;;;;;12.40;6.22;;;13.60;99.90;;;;;;4919604;29;20503;-62
2022/10/21 08:54:23;;;;;;;9.68;5.28;;;13.60;99.90;;;;;;4919771;29;20124;-62
2022/10/21 08:56:53;;;;;;;9.25;5.38;;;13.70;99.90;;;;;;4919421;29;20046;-63
2022/10/21 08:59:22;;;;;;;11.57;5.78;;;13.80;99.90;;;;;;4919759;29;20052;-62
2022/10/21 09:06:00;;;;;;;10.48;5.63;;;13.90;99.90;;;;;;4971586;23;20093;-77
2022/10/21 09:08:48;;;;;;;6.95;4.75;;;14.00;99.90;;;;;;4940233;29;20051;-77
2022/10/21 09:11:23;;;;;;;13.75;4.95;;;14.00;99.90;;;;;;4940172;29;20059;-77
2022/10/21 09:13:51;;;;;;;8.55;5.47;;;14.00;99.90;;;;;;4924318;29;20047;-78
2022/10/21 09:16:40;;;;;;;12.07;5.68;;;14.00;99.90;;;;;;4924571;29;20051;-77
2022/10/21 09:23:24;;;;;;;17.27;5.00;;;14.00;99.90;;;;;;4969490;23;20537;-69
2022/10/21 09:26:03;;;;;;;8.55;5.28;;;14.00;99.90;;;;;;4957412;29;20118;-69
2022/10/21 09:28:30;;;;;;;9.35;4.78;;;14.00;99.90;;;;;;4957423;29;20497;-69
2022/10/21 09:31:00;;;;;;;8.25;5.03;;;14.40;99.90;;;;;;4957299;29;20043;-69
2022/10/21 09:33:29;;;;;;;9.23;5.30;;;14.30;99.90;;;;;;4939787;29;20050;-69
2022/10/21 09:39:40;;;;;;;8.05;4.07;;;14.40;99.90;;;;;;5006871;23;20481;-72
2022/10/21 09:42:10;;;;;;;7.10;4.65;;;14.60;99.90;;;;;;4923968;29;20482;-72
2022/10/21 09:44:37;;;;;;;8.83;4.77;;;14.70;99.90;;;;;;4939883;29;20398;-72
2022/10/21 09:47:21;;;;;;;8.43;5.50;;;14.90;99.90;;;;;;4939575;29;20047;-72
2022/10/21 09:49:59;;;;;;;8.35;4.70;;;15.00;99.90;;;;;;4923695;29;20043;-72
2022/10/21 09:52:34;;;;;;;10.55;4.97;;;15.10;99.90;;;;;;4939725;29;20059;-72
2022/10/21 09:54:59;;;;;;;8.50;4.72;;;15.20;99.90;;;;;;4929574;23;20174;-69
2022/10/21 09:57:44;;;;;;;6.75;4.30;;;15.30;99.90;;;;;;4984199;23;20078;-74
2022/10/21 10:00:10;;;;;;;9.45;5.20;;;15.30;99.90;;;;;;4903421;29;20111;-72
2022/10/21 10:02:39;;;;;;;7.85;4.68;;;15.40;99.90;;;;;;4920117;29;20047;-72
2022/10/21 10:05:35;;;;;;;12.68;4.85;;;15.40;99.90;;;;;;4920507;29;20040;-72
2022/10/21 10:08:19;;;;;;;7.35;4.57;;;15.50;99.90;;;;;;4904410;29;20109;-72
2022/10/21 10:15:51;;;;;;;8.63;4.45;;;15.50;99.90;;;;;;4935620;29;20048;-69
2022/10/21 10:18:23;;;;;;;7.97;4.00;;;15.50;99.90;;;;;;4937293;29;20376;-71
2022/10/21 10:21:09;;;;;;;7.35;4.13;;;15.50;99.90;;;;;;4919850;29;20079;-71
2022/10/21 10:23:49;;;;;;;10.40;4.20;;;15.50;99.90;;;;;;4936885;29;20042;-71
2022/10/21 10:26:20;;;;;;;8.65;4.15;;;15.50;99.90;;;;;;4937093;29;20126;-70
2022/10/21 10:28:59;;;;;;;8.77;4.07;;;15.50;99.90;;;;;;4937080;29;20047;-71
2022/10/21 10:31:29;;;;;;;7.50;4.05;;;15.50;99.90;;;;;;4936802;29;20079;-71
2022/10/21 10:34:04;;;;;;;5.85;3.70;;;15.50;99.90;;;;;;4936988;29;20126;-71
2022/10/21 10:36:38;;;;;;;7.75;3.40;;;15.60;99.90;;;;;;4936973;29;20096;-71
2022/10/21 10:39:15;;;;;;;6.78;3.90;;;15.60;99.90;;;;;;4919604;29;20063;-71
2022/10/21 10:41:46;;;;;;;6.53;3.45;;;15.70;99.90;;;;;;4936589;29;20051;-71
2022/10/21 10:44:26;;;;;;;5.55;3.35;;;15.70;99.90;;;;;;4936834;29;20087;-71
2022/10/21 10:46:55;;;;;;;8.75;4.07;;;15.80;99.90;;;;;;4919444;29;20047;-71
2022/10/21 10:49:21;;;;;;;7.20;3.70;;;15.80;99.90;;;;;;4919459;29;20131;-71
2022/10/21 10:52:03;;;;;;;7.22;3.33;;;15.80;99.90;;;;;;4936682;29;20062;-71
2022/10/21 10:54:29;;;;;;;6.07;4.07;;;15.80;99.90;;;;;;4936490;29;20123;-71
2022/10/21 10:56:56;;;;;;;5.60;3.35;;;15.80;99.90;;;;;;4936711;29;20395;-71
2022/10/21 11:02:08;;;;;;;6.93;3.80;;;15.90;99.90;;;;;;4934201;29;20044;-71
2022/10/21 11:05:04;;;;;;;6.13;3.60;;;15.90;99.90;;;;;;4936501;29;20079;-71
2022/10/21 11:07:41;;;;;;;7.00;3.13;;;16.00;99.90;;;;;;4919203;29;20039;-71
2022/10/21 11:10:25;;;;;;;9.88;3.72;;;16.00;99.90;;;;;;4936456;29;20448;-72
2022/10/21 11:12:51;;;;;;;6.57;3.63;;;16.00;99.90;;;;;;4936156;29;20039;-71
2022/10/21 11:18:47;;;;;;;7.93;3.20;;;16.10;99.90;;;;;;3767980;23;20395;-72
2022/10/21 11:21:25;;;;;;;6.78;3.28;;;16.10;99.90;;;;;;4922344;29;20529;-72
2022/10/21 11:24:09;;;;;;;6.43;3.17;;;16.20;99.90;;;;;;4938225;29;20450;-73
2022/10/21 11:26:38;;;;;;;6.18;3.50;;;16.20;99.90;;;;;;4922051;29;20035;-71
2022/10/21 11:29:26;;;;;;;5.95;3.28;;;16.20;99.90;;;;;;4937805;29;20050;-73
2022/10/21 11:36:07;;;;;;;9.52;3.08;;;16.40;99.90;;;;;;4933819;29;20411;-70
2022/10/21 11:39:01;;;;;;;6.88;3.63;;;16.40;99.90;;;;;;4907847;29;20129;-71
2022/10/21 11:41:35;;;;;;;5.43;3.08;;;16.50;99.90;;;;;;4936058;29;20144;-72
2022/10/21 11:44:22;;;;;;;6.05;3.33;;;16.50;99.90;;;;;;4936145;29;20044;-69
2022/10/21 11:47:23;;;;;;;7.63;3.28;;;16.50;99.90;;;;;;4936062;29;20047;-69
2022/10/21 11:52:50;;;;;;;6.32;3.40;;;16.50;99.90;;;;;;4694380;23;20533;-76
2022/10/21 11:55:34;;;;;;;5.15;3.45;;;16.50;99.90;;;;;;4937965;29;20055;-77
2022/10/21 11:58:18;;;;;;;5.82;3.20;;;16.50;99.90;;;;;;4937674;29;20278;-76
2022/10/21 12:01:08;;;;;;;5.03;2.72;;;16.50;99.90;;;;;;4921833;29;20043;-76
2022/10/21 12:03:42;;;;;;;7.00;3.33;;;16.50;99.90;;;;;;4937925;29;20043;-76
2022/10/21 12:06:17;;;;;;;6.53;2.97;;;16.50;99.90;;;;;;4920878;29;20043;-76
2022/10/21 12:08:59;;;;;;;5.35;2.80;;;16.50;99.90;;;;;;4936927;29;20050;-77
2022/10/21 12:11:45;;;;;;;4.95;2.60;;;16.50;99.90;;;;;;4936846;29;20487;-75
2022/10/21 12:14:33;;;;;;;6.63;3.13;;;16.60;99.90;;;;;;4920834;29;20086;-76
2022/10/21 12:17:04;;;;;;;7.05;2.78;;;16.50;99.90;;;;;;4936643;29;20043;-77
2022/10/21 12:19:30;;;;;;;5.85;2.92;;;16.50;99.90;;;;;;4939116;29;20043;-76
2022/10/21 12:24:33;;;;;;;4.35;2.67;;;16.60;99.90;;;;;;4955376;29;20458;-68
2022/10/21 12:27:26;;;;;;;8.40;3.33;;;16.60;99.90;;;;;;4957535;29;20047;-68
2022/10/21 12:30:07;;;;;;;9.57;3.47;;;16.60;99.90;;;;;;4940022;29;20043;-67
2022/10/21 12:33:10;;;;;;;4.82;2.85;;;16.50;99.90;;;;;;4957477;29;20079;-68
2022/10/21 12:35:42;;;;;;;5.40;2.88;;;16.50;99.90;;;;;;4957703;29;20054;-69
2022/10/21 12:41:42;;;;;;;7.57;3.17;;;16.60;99.90;;;;;;4947403;23;20085;-71
2022/10/21 12:44:25;;;;;;;9.48;3.30;;;16.60;99.90;;;;;;4905212;29;20087;-69
2022/10/21 12:46:55;;;;;;;5.13;2.80;;;16.50;99.90;;;;;;4920666;29;20044;-68
2022/10/21 12:49:31;;;;;;;5.28;3.00;;;16.60;99.90;;;;;;4920924;29;20048;-67
2022/10/21 12:52:03;;;;;;;7.32;3.15;;;16.60;99.90;;;;;;4937807;29;20044;-67
2022/10/21 12:54:36;;;;;;;5.32;2.85;;;16.50;99.90;;;;;;4920560;29;20052;-67
2022/10/21 13:00:40;;;;;;;8.55;3.40;;;16.50;99.90;;;;;;4944930;23;20549;-74
2022/10/21 13:03:17;;;;;;;10.38;3.33;;;15.70;99.90;;;;;;4939682;29;20083;-74
2022/10/21 13:05:46;;;;;;;9.25;3.97;;;16.50;99.90;;;;;;4923464;29;20047;-75
2022/10/21 13:08:18;;;;;;;8.60;3.67;;;16.40;99.90;;;;;;4939493;29;20047;-81
2022/10/21 13:11:04;;;;;;;5.20;2.97;;;16.50;99.90;;;;;;4923862;29;20050;-80
2022/10/21 13:17:20;;;;;;;5.55;3.05;;;16.50;99.90;;;;;;4938712;29;20138;-74
2022/10/21 13:23:36;;;;;;;4.43;2.65;;;16.50;99.90;;;;;;4973209;23;20066;-66
2022/10/21 13:26:13;;;;;;;8.32;3.03;;;16.50;99.90;;;;;;4956121;29;20054;-66
2022/10/21 13:28:40;;;;;;;5.03;3.03;;;16.50;99.90;;;;;;4956159;29;20066;-65
2022/10/21 13:31:07;;;;;;;6.38;3.70;;;16.50;99.90;;;;;;4937900;29;20050;-66
2022/10/21 13:33:36;;;;;;;5.22;3.20;;;16.50;99.90;;;;;;4956122;29;20516;-66
2022/10/21 13:36:09;;;;;;;6.40;3.88;;;16.60;99.90;;;;;;4939101;29;20048;-65
2022/10/21 13:38:45;;;;;;;9.13;3.97;;;16.60;99.90;;;;;;4955896;29;20051;-66
2022/10/21 13:41:30;;;;;;;4.25;2.72;;;16.60;99.90;;;;;;4956123;29;20463;-66
2022/10/21 13:43:59;;;;;;;13.40;4.70;;;16.60;99.90;;;;;;4939043;29;20039;-66
2022/10/21 13:46:37;;;;;;;5.72;2.88;;;16.60;99.90;;;;;;4955604;29;20047;-66
2022/10/21 13:49:04;;;;;;;5.45;3.08;;;16.70;99.90;;;;;;4938713;29;20490;-65
2022/10/21 13:51:32;;;;;;;3.70;2.30;;;16.70;99.90;;;;;;4938567;29;20130;-65
2022/10/21 13:54:05;;;;;;;5.95;2.70;;;16.80;99.90;;;;;;4938498;29;20054;-66
2022/10/21 13:56:33;;;;;;;7.45;3.22;;;16.80;99.90;;;;;;4955585;29;20399;-66
2022/10/21 13:59:00;;;;;;;5.65;3.70;;;16.80;99.90;;;;;;4955329;29;20085;-66
2022/10/21 14:01:45;;;;;;;4.95;3.05;;;16.80;99.90;;;;;;4938257;29;20043;-64
2022/10/21 14:04:26;;;;;;;4.97;3.10;;;16.80;99.90;;;;;;4938434;29;20070;-65
2022/10/21 14:06:55;;;;;;;4.60;2.72;;;16.80;99.90;;;;;;4955275;29;20074;-66
2022/10/21 14:09:41;;;;;;;6.40;3.03;;;16.80;99.90;;;;;;4938034;29;20110;-65
2022/10/21 14:12:24;;;;;;;5.80;2.80;;;16.80;99.90;;;;;;4937975;29;20055;-65
2022/10/21 14:14:51;;;;;;;4.80;2.63;;;16.90;99.90;;;;;;4955234;29;20043;-65
2022/10/21 14:17:21;;;;;;;7.80;3.13;;;16.90;99.90;;;;;;4955068;29;20043;-64
2022/10/21 14:19:51;;;;;;;4.22;2.63;;;16.90;99.90;;;;;;4955062;29;20098;-65
2022/10/21 14:22:24;;;;;;;19.00;3.87;;;16.90;99.90;;;;;;4954872;29;20135;-65
2022/10/21 14:24:57;;;;;;;5.97;2.97;;;16.90;99.90;;;;;;4937972;29;20287;-65
2022/10/21 14:27:32;;;;;;;5.38;2.75;;;16.90;99.90;;;;;;4955169;29;20043;-65
2022/10/21 14:30:03;;;;;;;5.82;2.63;;;17.00;99.90;;;;;;4954929;29;20074;-64
2022/10/21 14:32:30;;;;;;;6.75;3.20;;;17.00;99.90;;;;;;4937708;29;20106;-65
2022/10/21 14:35:20;;;;;;;3.50;2.28;;;16.90;99.90;;;;;;4955074;29;20043;-64
2022/10/21 14:37:51;;;;;;;6.22;2.35;;;16.90;99.90;;;;;;4954737;29;20043;-65
2022/10/21 14:40:32;;;;;;;5.07;2.47;;;16.90;99.90;;;;;;4921837;29;20058;-64
2022/10/21 14:43:07;;;;;;;3.60;2.13;;;16.80;99.90;;;;;;4954640;28;20359;-65